createdAt,value
2023-02-16T00:00:17.803Z,99.90
2023-02-16T00:02:45.566Z,99.90
2023-02-16T00:05:31.433Z,99.90
2023-02-16T00:08:00.694Z,99.90
2023-02-16T00:10:34.152Z,99.90
2023-02-16T00:13:23.180Z,99.90
2023-02-16T00:15:50.563Z,99.90
2023-02-16T00:18:20.648Z,99.90
2023-02-16T00:20:50.146Z,99.90
2023-02-16T00:23:17.298Z,99.90
2023-02-16T00:25:45.185Z,99.90
2023-02-16T00:28:18.044Z,99.90
2023-02-16T00:30:46.202Z,99.90
2023-02-16T00:33:18.223Z,99.90
2023-02-16T00:35:45.895Z,99.90
2023-02-16T00:38:23.785Z,99.90
2023-02-16T00:40:51.067Z,99.90
2023-02-16T00:43:28.964Z,99.90
2023-02-16T00:45:56.984Z,99.90
2023-02-16T00:48:25.132Z,99.90
2023-02-16T00:50:54.062Z,99.90
2023-02-16T00:53:24.278Z,99.90
2023-02-16T00:55:54.998Z,99.90
2023-02-16T00:58:26.851Z,99.90
2023-02-16T01:00:58.628Z,99.90
2023-02-16T01:03:29.183Z,99.90
2023-02-16T01:06:19.088Z,99.90
2023-02-16T01:09:06.443Z,99.90
2023-02-16T01:11:41.356Z,99.90
2023-02-16T01:14:14.647Z,99.90
2023-02-16T01:16:49.547Z,99.90
2023-02-16T01:19:19.826Z,99.90
2023-02-16T01:21:53.310Z,99.90
2023-02-16T01:24:20.987Z,99.90
2023-02-16T01:26:50.438Z,99.90
2023-02-16T01:29:20.433Z,99.90
2023-02-16T01:31:50.934Z,99.90
2023-02-16T01:34:22.660Z,99.90
2023-02-16T01:36:53.345Z,99.90
2023-02-16T01:39:21.523Z,99.90
2023-02-16T01:42:13.826Z,99.90
2023-02-16T01:44:51.074Z,99.90
2023-02-16T01:47:33.766Z,99.90
2023-02-16T01:50:14.799Z,99.90
2023-02-16T01:52:44.405Z,99.90
2023-02-16T01:55:35.474Z,99.90
2023-02-16T01:58:12.054Z,99.90
2023-02-16T02:00:59.594Z,99.90
2023-02-16T02:03:48.809Z,99.90
2023-02-16T02:06:21.359Z,99.90
2023-02-16T02:08:59.276Z,99.90
2023-02-16T02:11:36.167Z,99.90
2023-02-16T02:14:09.664Z,99.90
2023-02-16T02:16:37.213Z,99.90
2023-02-16T02:19:07.903Z,99.90
2023-02-16T02:22:15.955Z,99.90
2023-02-16T02:25:05.542Z,99.90
2023-02-16T02:27:39.465Z,99.90
2023-02-16T02:30:46.877Z,99.90
2023-02-16T02:33:27.029Z,99.90
2023-02-16T02:36:18.162Z,99.90
2023-02-16T02:39:18.471Z,99.90
2023-02-16T02:42:11.097Z,99.90
2023-02-16T02:44:52.922Z,99.90
2023-02-16T02:47:24.250Z,99.90
2023-02-16T02:49:54.499Z,99.90
2023-02-16T02:52:27.328Z,99.90
2023-02-16T02:55:15.252Z,99.90
2023-02-16T02:58:06.575Z,99.90
2023-02-16T03:00:49.566Z,99.90
2023-02-16T03:03:35.881Z,99.90
2023-02-16T03:06:05.957Z,99.90
2023-02-16T03:08:35.992Z,99.90
2023-02-16T03:11:32.713Z,99.90
2023-02-16T03:14:24.837Z,99.90
2023-02-16T03:17:17.633Z,99.90
2023-02-16T03:20:07.925Z,99.90
2023-02-16T03:22:56.593Z,99.90
2023-02-16T03:25:46.549Z,99.90
2023-02-16T03:28:34.609Z,99.90
2023-02-16T03:31:03.736Z,99.90
2023-02-16T03:33:31.516Z,99.90
2023-02-16T03:35:59.565Z,99.90
2023-02-16T03:38:27.380Z,99.90
2023-02-16T03:40:55.119Z,99.90
2023-02-16T03:43:27.115Z,99.90
2023-02-16T03:45:54.797Z,99.90
2023-02-16T03:48:22.135Z,99.90
2023-02-16T03:50:49.354Z,99.90
2023-02-16T03:53:18.297Z,99.90
2023-02-16T03:55:48.771Z,99.90
2023-02-16T03:58:19.300Z,99.90
2023-02-16T04:00:46.647Z,99.90
2023-02-16T04:03:14.633Z,99.90
2023-02-16T04:05:42.670Z,99.90
2023-02-16T04:08:10.481Z,99.90
2023-02-16T04:10:39.266Z,99.90
2023-02-16T04:13:06.612Z,99.90
2023-02-16T04:15:34.298Z,99.90
2023-02-16T04:18:01.798Z,99.90
2023-02-16T04:20:31.571Z,99.90
2023-02-16T04:23:00.345Z,99.90
2023-02-16T04:25:27.954Z,99.90
2023-02-16T04:27:56.063Z,99.90
2023-02-16T04:30:26.799Z,99.90
2023-02-16T04:32:54.439Z,99.90
2023-02-16T04:35:33.741Z,99.90
2023-02-16T04:38:02.907Z,99.90
2023-02-16T04:40:30.043Z,99.90
2023-02-16T04:42:57.452Z,99.90
2023-02-16T04:45:24.992Z,99.90
2023-02-16T04:47:52.747Z,99.90
2023-02-16T04:50:20.278Z,99.90
2023-02-16T04:53:18.276Z,99.90
2023-02-16T04:55:48.940Z,99.90
2023-02-16T04:58:16.962Z,99.90
2023-02-16T05:00:44.291Z,99.90
2023-02-16T05:03:17.040Z,99.90
2023-02-16T05:05:44.540Z,99.90
2023-02-16T05:08:11.788Z,99.90
2023-02-16T05:10:39.028Z,99.90
2023-02-16T05:13:26.090Z,99.90
2023-02-16T05:15:53.367Z,99.90
2023-02-16T05:18:20.488Z,99.90
2023-02-16T05:21:07.624Z,99.90
2023-02-16T05:23:34.966Z,99.90
2023-02-16T05:26:02.124Z,99.90
2023-02-16T05:28:29.570Z,99.90
2023-02-16T05:30:56.943Z,99.90
2023-02-16T05:33:24.436Z,99.90
2023-02-16T05:35:52.261Z,99.90
2023-02-16T05:38:19.991Z,99.90
2023-02-16T05:40:48.413Z,99.90
2023-02-16T05:43:15.969Z,99.90
2023-02-16T05:45:43.390Z,99.90
2023-02-16T05:48:11.007Z,99.90
2023-02-16T05:50:38.440Z,99.90
2023-02-16T05:53:06.770Z,99.90
2023-02-16T05:55:34.084Z,99.90
2023-02-16T05:58:02.418Z,99.90
2023-02-16T06:00:34.699Z,99.90
2023-02-16T06:03:04.927Z,99.90
2023-02-16T06:05:33.687Z,99.90
2023-02-16T06:08:01.497Z,99.90
2023-02-16T06:10:29.464Z,99.90
2023-02-16T06:12:56.977Z,99.90
2023-02-16T06:15:24.446Z,99.90
2023-02-16T06:17:51.733Z,99.90
2023-02-16T06:20:22.084Z,99.90
2023-02-16T06:22:49.243Z,99.90
2023-02-16T06:25:18.721Z,99.90
2023-02-16T06:27:45.965Z,99.90
2023-02-16T06:30:13.662Z,99.90
2023-02-16T06:32:40.854Z,99.90
2023-02-16T06:35:08.656Z,99.90
2023-02-16T06:37:36.198Z,99.90
2023-02-16T06:40:03.773Z,99.90
2023-02-16T06:42:30.919Z,99.90
2023-02-16T06:44:58.181Z,99.90
2023-02-16T06:47:25.479Z,99.90
2023-02-16T06:49:52.850Z,99.90
2023-02-16T06:52:20.230Z,99.90
2023-02-16T06:54:47.408Z,99.90
2023-02-16T06:57:14.688Z,99.90
2023-02-16T06:59:41.902Z,99.90
2023-02-16T07:02:11.017Z,99.90
2023-02-16T07:04:38.301Z,99.70
2023-02-16T07:07:05.479Z,97.70
2023-02-16T07:09:32.826Z,96.00
2023-02-16T07:12:00.029Z,94.50
2023-02-16T07:14:27.344Z,94.30
2023-02-16T07:16:54.648Z,93.40
2023-02-16T07:19:21.851Z,92.10
2023-02-16T07:21:49.094Z,91.60
2023-02-16T07:24:16.262Z,90.80
2023-02-16T07:26:43.681Z,90.30
2023-02-16T07:29:10.841Z,88.10
2023-02-16T07:31:38.173Z,86.30
2023-02-16T07:34:05.774Z,84.80
2023-02-16T07:36:32.923Z,84.00
2023-02-16T07:39:00.412Z,82.10
2023-02-16T07:41:27.632Z,82.60
2023-02-16T07:43:54.999Z,80.80
2023-02-16T07:46:22.364Z,80.50
2023-02-16T07:48:50.520Z,78.20
2023-02-16T07:51:22.853Z,77.20
2023-02-16T07:53:50.223Z,78.20
2023-02-16T07:56:24.727Z,77.80
2023-02-16T07:58:52.874Z,77.10
2023-02-16T08:01:20.228Z,74.10
2023-02-16T08:03:47.828Z,73.80
2023-02-16T08:06:15.685Z,73.00
2023-02-16T08:08:45.037Z,72.50
2023-02-16T08:11:16.131Z,72.20
2023-02-16T08:13:43.824Z,71.10
2023-02-16T08:16:13.673Z,69.10
2023-02-16T08:18:42.004Z,69.00
2023-02-16T08:21:14.272Z,69.30
2023-02-16T08:23:47.811Z,71.30
2023-02-16T08:26:17.673Z,70.00
2023-02-16T08:28:50.305Z,68.80
2023-02-16T08:31:20.596Z,66.10
2023-02-16T08:33:48.236Z,65.80
2023-02-16T08:36:34.608Z,68.30
2023-02-16T08:39:04.624Z,67.10
2023-02-16T08:41:34.308Z,66.90
2023-02-16T08:44:02.560Z,67.10
2023-02-16T08:46:30.680Z,68.20
2023-02-16T08:49:00.198Z,68.30
2023-02-16T08:51:30.604Z,67.50
2023-02-16T08:54:00.322Z,67.30
2023-02-16T08:56:29.997Z,66.90
2023-02-16T08:58:57.860Z,68.40
2023-02-16T09:01:25.581Z,68.30
2023-02-16T09:03:53.399Z,70.00
2023-02-16T09:06:22.631Z,69.30
2023-02-16T09:08:53.332Z,68.80
2023-02-16T09:11:21.783Z,68.50
2023-02-16T09:13:49.440Z,66.40
2023-02-16T09:16:22.648Z,66.00
2023-02-16T09:18:51.057Z,67.20
2023-02-16T09:21:21.227Z,66.10
2023-02-16T09:23:50.941Z,66.20
2023-02-16T09:26:20.349Z,66.80
2023-02-16T09:28:48.939Z,65.20
2023-02-16T09:31:23.842Z,66.30
2023-02-16T09:33:51.940Z,64.00
2023-02-16T09:36:19.198Z,63.90
2023-02-16T09:38:49.398Z,64.00
2023-02-16T09:41:23.410Z,65.10
2023-02-16T09:43:54.406Z,61.90
2023-02-16T09:46:24.572Z,61.80
2023-02-16T09:48:53.210Z,63.60
2023-02-16T09:51:41.502Z,63.20
2023-02-16T09:54:15.428Z,63.70
2023-02-16T09:56:50.600Z,64.50
2023-02-16T09:59:27.979Z,63.90
2023-02-16T10:02:07.992Z,62.90
2023-02-16T10:04:55.175Z,63.40
2023-02-16T10:08:00.666Z,62.90
2023-02-16T10:10:32.063Z,62.80
2023-02-16T10:13:07.651Z,59.70
2023-02-16T10:15:36.315Z,61.70
2023-02-16T10:18:17.148Z,61.60
2023-02-16T10:20:46.432Z,59.80
2023-02-16T10:23:34.567Z,60.30
2023-02-16T10:26:08.894Z,61.70
2023-02-16T10:28:49.376Z,64.00
2023-02-16T10:31:24.405Z,64.80
2023-02-16T10:34:02.517Z,65.60
2023-02-16T10:36:50.029Z,68.20
2023-02-16T10:39:27.382Z,68.90
2023-02-16T10:42:17.864Z,70.10
2023-02-16T10:44:51.336Z,69.30
2023-02-16T10:47:38.089Z,69.80
2023-02-16T10:50:07.683Z,67.90
2023-02-16T10:52:40.814Z,70.00
2023-02-16T10:55:08.276Z,70.80
2023-02-16T10:57:35.951Z,71.90
2023-02-16T11:00:08.328Z,73.80
2023-02-16T11:02:37.420Z,72.40
2023-02-16T11:05:41.420Z,76.00
2023-02-16T11:08:12.924Z,77.20
2023-02-16T11:10:56.197Z,72.90
2023-02-16T11:13:34.401Z,74.70
2023-02-16T11:16:10.203Z,70.50
2023-02-16T11:18:42.011Z,70.70
2023-02-16T11:21:12.307Z,70.50
2023-02-16T11:23:41.635Z,70.60
2023-02-16T11:26:10.325Z,67.60
2023-02-16T11:28:47.870Z,68.50
2023-02-16T11:31:34.532Z,70.10
2023-02-16T11:34:06.739Z,71.40
2023-02-16T11:36:39.484Z,71.80
2023-02-16T11:39:10.937Z,70.40
2023-02-16T11:41:38.544Z,71.90
2023-02-16T11:44:20.994Z,71.50
2023-02-16T11:46:48.464Z,72.90
2023-02-16T11:49:30.302Z,73.00
2023-02-16T11:51:58.324Z,71.30
2023-02-16T11:54:27.824Z,70.90
2023-02-16T11:57:05.706Z,73.00
2023-02-16T11:59:38.925Z,73.40
2023-02-16T12:02:35.367Z,71.50
2023-02-16T12:05:31.832Z,70.90
2023-02-16T12:08:00.452Z,70.20
2023-02-16T12:10:45.840Z,73.10
2023-02-16T12:13:25.982Z,71.10
2023-02-16T12:16:16.883Z,72.10
2023-02-16T12:19:07.857Z,71.50
2023-02-16T12:21:39.040Z,73.50
2023-02-16T12:24:45.944Z,71.70
2023-02-16T12:27:18.886Z,74.60
2023-02-16T12:30:14.353Z,72.10
2023-02-16T12:33:09.393Z,73.10
2023-02-16T12:35:59.043Z,75.70
2023-02-16T12:38:53.883Z,76.70
2023-02-16T12:41:36.474Z,74.90
2023-02-16T12:44:13.031Z,73.30
2023-02-16T12:46:44.753Z,74.70
2023-02-16T12:49:16.671Z,74.60
2023-02-16T12:51:49.957Z,76.90
2023-02-16T12:54:25.374Z,76.40
2023-02-16T12:57:03.165Z,77.30
2023-02-16T12:59:31.373Z,76.60
2023-02-16T13:02:00.692Z,74.40
2023-02-16T13:04:38.844Z,78.50
2023-02-16T13:07:18.023Z,79.70
2023-02-16T13:09:52.545Z,75.90
2023-02-16T13:12:41.113Z,79.80
2023-02-16T13:15:22.747Z,77.10
2023-02-16T13:17:56.178Z,77.20
2023-02-16T13:20:25.098Z,77.70
2023-02-16T13:23:16.033Z,76.90
2023-02-16T13:25:47.085Z,76.70
2023-02-16T13:28:37.170Z,77.60
2023-02-16T13:31:40.373Z,79.10
2023-02-16T13:34:34.402Z,77.20
2023-02-16T13:37:11.308Z,76.30
2023-02-16T13:39:52.340Z,81.60
2023-02-16T13:42:29.742Z,80.30
2023-02-16T13:45:00.022Z,80.40
2023-02-16T13:47:31.877Z,76.60
2023-02-16T13:50:02.471Z,80.20
2023-02-16T13:52:34.845Z,78.70
2023-02-16T13:55:05.863Z,78.50
2023-02-16T13:57:53.119Z,78.30
2023-02-16T14:00:45.325Z,82.60
2023-02-16T14:03:21.407Z,81.70
2023-02-16T14:05:54.343Z,81.60
2023-02-16T14:08:27.725Z,80.50
2023-02-16T14:10:55.450Z,81.20
2023-02-16T14:13:33.681Z,80.40
2023-02-16T14:16:11.284Z,81.90
2023-02-16T14:18:42.901Z,81.70
2023-02-16T14:21:26.462Z,80.70
2023-02-16T14:23:57.355Z,81.70
2023-02-16T14:26:26.348Z,81.50
2023-02-16T14:29:01.622Z,80.40
2023-02-16T14:31:31.953Z,85.30
2023-02-16T14:34:19.066Z,82.60
2023-02-16T14:37:27.809Z,80.80
2023-02-16T14:40:07.948Z,83.10
2023-02-16T14:42:36.761Z,84.20
2023-02-16T14:45:20.453Z,83.60
2023-02-16T14:48:27.092Z,81.20
2023-02-16T14:51:15.488Z,82.20
2023-02-16T14:54:10.300Z,80.60
2023-02-16T14:56:39.617Z,84.50
2023-02-16T14:59:38.866Z,82.00
2023-02-16T15:02:25.983Z,83.70
2023-02-16T15:04:53.837Z,84.80
2023-02-16T15:07:22.276Z,84.80
2023-02-16T15:09:57.289Z,85.40
2023-02-16T15:12:40.719Z,85.10
2023-02-16T15:15:17.172Z,87.90
2023-02-16T15:17:47.528Z,89.30
2023-02-16T15:20:25.019Z,87.80
2023-02-16T15:22:55.018Z,88.40
2023-02-16T15:25:28.022Z,89.90
2023-02-16T15:28:00.349Z,89.60
2023-02-16T15:30:31.196Z,90.00
2023-02-16T15:33:13.655Z,89.90
2023-02-16T15:35:44.884Z,90.20
2023-02-16T15:38:13.710Z,90.50
2023-02-16T15:40:40.986Z,90.60
2023-02-16T15:43:31.826Z,90.70
2023-02-16T15:46:01.212Z,91.20
2023-02-16T15:48:31.684Z,91.60
2023-02-16T15:51:21.326Z,92.20
2023-02-16T15:53:56.128Z,92.70
2023-02-16T15:56:28.367Z,93.20
2023-02-16T15:59:01.071Z,93.80
2023-02-16T16:01:34.144Z,94.20
2023-02-16T16:04:05.840Z,94.50
2023-02-16T16:06:36.594Z,94.80
2023-02-16T16:09:08.667Z,95.10
2023-02-16T16:11:37.433Z,95.50
2023-02-16T16:14:06.446Z,95.90
2023-02-16T16:16:34.319Z,96.40
2023-02-16T16:19:08.856Z,96.80
2023-02-16T16:21:47.290Z,97.50
2023-02-16T16:24:26.793Z,97.50
2023-02-16T16:26:56.684Z,98.30
2023-02-16T16:29:32.337Z,98.60
2023-02-16T16:31:59.945Z,99.20
2023-02-16T16:34:40.007Z,99.90
2023-02-16T16:37:20.105Z,99.90
2023-02-16T16:40:06.108Z,99.90
2023-02-16T16:42:39.393Z,99.90
2023-02-16T16:45:20.696Z,99.90
2023-02-16T16:47:52.229Z,99.90
2023-02-16T16:50:39.765Z,99.90
2023-02-16T16:53:30.334Z,99.90
2023-02-16T16:55:58.869Z,99.90
2023-02-16T16:58:27.231Z,99.90
2023-02-16T17:00:54.756Z,99.90
2023-02-16T17:03:22.660Z,99.90
2023-02-16T17:05:50.014Z,99.90
2023-02-16T17:08:17.203Z,99.90
2023-02-16T17:10:44.918Z,99.90
2023-02-16T17:13:19.144Z,99.90
2023-02-16T17:15:53.041Z,99.90
2023-02-16T17:18:22.704Z,99.90
2023-02-16T17:20:50.727Z,99.90
2023-02-16T17:23:20.748Z,99.90
2023-02-16T17:25:49.681Z,99.90
2023-02-16T17:28:19.199Z,99.90
2023-02-16T17:30:46.628Z,99.90
2023-02-16T17:33:13.915Z,99.90
2023-02-16T17:35:43.296Z,99.90
2023-02-16T17:38:13.849Z,99.90
2023-02-16T17:40:41.947Z,99.90
2023-02-16T17:43:14.114Z,99.90
2023-02-16T17:45:42.212Z,99.90
2023-02-16T17:48:16.444Z,99.90
2023-02-16T17:50:43.740Z,99.90
2023-02-16T17:53:14.102Z,99.90
2023-02-16T17:55:41.786Z,99.90
2023-02-16T17:58:10.321Z,99.90
2023-02-16T18:00:38.409Z,99.90
2023-02-16T18:03:06.509Z,99.90
2023-02-16T18:05:34.500Z,99.90
2023-02-16T18:08:02.171Z,99.90
2023-02-16T18:10:51.121Z,99.90
2023-02-16T18:13:19.069Z,99.90
2023-02-16T18:15:48.638Z,99.90
2023-02-16T18:18:17.401Z,99.90
2023-02-16T18:20:45.296Z,99.90
2023-02-16T18:23:13.294Z,99.90
2023-02-16T18:25:43.193Z,99.90
2023-02-16T18:28:14.823Z,99.90
2023-02-16T18:30:42.468Z,99.90
2023-02-16T18:33:10.124Z,99.90
2023-02-16T18:35:38.299Z,99.90
2023-02-16T18:38:06.590Z,99.90
2023-02-16T18:40:33.931Z,99.90
2023-02-16T18:43:01.127Z,99.90
2023-02-16T18:45:28.330Z,99.90
2023-02-16T18:47:55.764Z,99.90
2023-02-16T18:50:23.109Z,99.90
2023-02-16T18:52:50.376Z,99.90
2023-02-16T18:55:17.891Z,99.90
2023-02-16T18:57:45.105Z,99.90
2023-02-16T19:00:14.920Z,99.90
2023-02-16T19:02:43.477Z,99.90
2023-02-16T19:05:11.470Z,99.90
2023-02-16T19:07:38.746Z,99.90
2023-02-16T19:10:08.467Z,99.90
2023-02-16T19:12:36.212Z,99.90
2023-02-16T19:15:04.243Z,99.90
2023-02-16T19:17:31.495Z,99.90
2023-02-16T19:19:58.701Z,99.90
2023-02-16T19:22:25.879Z,99.90
2023-02-16T19:24:53.254Z,99.90
2023-02-16T19:27:20.392Z,99.90
2023-02-16T19:29:48.010Z,99.90
2023-02-16T19:32:15.180Z,99.90
2023-02-16T19:34:42.610Z,99.90
2023-02-16T19:37:09.788Z,99.90
2023-02-16T19:39:37.025Z,99.90
2023-02-16T19:42:04.379Z,99.90
2023-02-16T19:44:34.235Z,99.90
2023-02-16T19:47:01.482Z,99.90
2023-02-16T19:49:29.165Z,99.90
2023-02-16T19:51:56.358Z,99.90
2023-02-16T19:54:25.248Z,99.90
2023-02-16T19:56:54.208Z,99.90
2023-02-16T19:59:22.968Z,99.90
2023-02-16T20:01:51.377Z,99.90
2023-02-16T20:04:18.489Z,99.90
2023-02-16T20:06:46.271Z,99.90
2023-02-16T20:09:13.658Z,99.90
2023-02-16T20:11:41.064Z,99.90
2023-02-16T20:14:08.804Z,99.90
2023-02-16T20:16:36.028Z,99.90
2023-02-16T20:19:03.788Z,99.90
2023-02-16T20:21:31.612Z,99.90
2023-02-16T20:24:02.302Z,99.90
2023-02-16T20:26:34.297Z,99.90
2023-02-16T20:29:02.867Z,99.90
2023-02-16T20:31:33.817Z,99.90
2023-02-16T20:34:01.266Z,99.90
2023-02-16T20:36:28.621Z,99.90
2023-02-16T20:38:55.908Z,99.90
2023-02-16T20:41:23.762Z,99.90
2023-02-16T20:43:51.063Z,99.90
2023-02-16T20:46:19.471Z,99.90
2023-02-16T20:48:46.742Z,99.90
2023-02-16T20:51:14.312Z,99.90
2023-02-16T20:53:41.715Z,99.90
2023-02-16T20:56:15.175Z,99.90
2023-02-16T20:58:44.401Z,99.90
2023-02-16T21:01:20.486Z,99.90
2023-02-16T21:03:48.156Z,99.90
2023-02-16T21:06:16.021Z,99.90
2023-02-16T21:08:43.725Z,99.90
2023-02-16T21:11:11.143Z,99.90
2023-02-16T21:13:40.848Z,99.90
2023-02-16T21:16:08.903Z,99.90
2023-02-16T21:18:40.045Z,99.90
2023-02-16T21:21:08.759Z,99.90
2023-02-16T21:23:36.584Z,99.90
2023-02-16T21:26:06.338Z,99.90
2023-02-16T21:28:34.066Z,99.90
2023-02-16T21:31:04.856Z,99.90
2023-02-16T21:33:32.479Z,99.90
2023-02-16T21:36:12.727Z,99.90
2023-02-16T21:38:40.904Z,99.90
2023-02-16T21:41:30.061Z,99.90
2023-02-16T21:44:00.850Z,99.90
2023-02-16T21:46:30.913Z,99.90
2023-02-16T21:48:58.503Z,99.90
2023-02-16T21:51:28.622Z,99.90
2023-02-16T21:53:57.265Z,99.90
2023-02-16T21:56:42.042Z,99.90
2023-02-16T21:59:11.993Z,99.90
2023-02-16T22:01:42.737Z,99.90
2023-02-16T22:04:13.278Z,99.90
2023-02-16T22:06:43.378Z,99.90
2023-02-16T22:09:14.321Z,99.90
2023-02-16T22:11:41.961Z,99.90
2023-02-16T22:14:09.738Z,99.90
2023-02-16T22:16:38.952Z,99.90
2023-02-16T22:19:11.069Z,99.90
2023-02-16T22:21:42.049Z,99.90
2023-02-16T22:24:13.409Z,99.90
2023-02-16T22:26:40.737Z,99.90
2023-02-16T22:29:08.772Z,99.90
2023-02-16T22:31:37.126Z,99.90
2023-02-16T22:34:08.404Z,99.90
2023-02-16T22:36:36.874Z,99.90
2023-02-16T22:39:04.970Z,99.90
2023-02-16T22:41:32.987Z,99.90
2023-02-16T22:44:00.718Z,99.90
2023-02-16T22:46:29.770Z,99.90
2023-02-16T22:48:59.031Z,99.90
2023-02-16T22:51:29.357Z,99.90
2023-02-16T22:53:58.821Z,99.90
2023-02-16T22:56:27.863Z,99.90
2023-02-16T22:58:57.487Z,99.90
2023-02-16T23:01:25.883Z,99.90
2023-02-16T23:03:57.584Z,99.90
2023-02-16T23:06:29.650Z,99.90
2023-02-16T23:09:01.682Z,99.90
2023-02-16T23:11:29.140Z,99.90
2023-02-16T23:13:56.446Z,99.90
2023-02-16T23:16:25.401Z,99.90
2023-02-16T23:18:54.551Z,99.90
2023-02-16T23:21:22.676Z,99.90
2023-02-16T23:23:51.679Z,99.90
2023-02-16T23:26:20.330Z,99.90
2023-02-16T23:28:51.652Z,99.90
2023-02-16T23:31:19.366Z,99.90
2023-02-16T23:33:47.004Z,99.90
2023-02-16T23:36:14.109Z,99.90
2023-02-16T23:38:41.539Z,99.90
2023-02-16T23:41:12.056Z,99.90
2023-02-16T23:43:39.766Z,99.90
2023-02-16T23:46:07.760Z,99.90
2023-02-16T23:48:35.115Z,99.90
2023-02-16T23:51:02.567Z,99.90
2023-02-16T23:53:29.753Z,99.90
2023-02-16T23:56:00.021Z,99.90
2023-02-16T23:58:29.374Z,99.90
